createdAt,value
2022-10-11T00:01:25.636Z,78.49
2022-10-11T00:04:06.995Z,78.56
2022-10-11T00:06:51.495Z,78.07
2022-10-11T00:09:32.101Z,78.25
2022-10-11T00:12:13.631Z,78.59
2022-10-11T00:14:53.203Z,77.27
2022-10-11T00:17:34.666Z,76.37
2022-10-11T00:20:36.427Z,77.00
2022-10-11T00:23:16.814Z,77.79
2022-10-11T00:26:08.983Z,77.91
2022-10-11T00:28:52.996Z,77.47
2022-10-11T00:31:43.234Z,77.82
2022-10-11T00:34:26.619Z,77.24
2022-10-11T00:37:10.159Z,77.74
2022-10-11T00:39:51.338Z,77.54
2022-10-11T00:42:35.255Z,77.56
2022-10-11T00:45:28.148Z,78.28
2022-10-11T00:48:23.089Z,78.48
2022-10-11T00:51:46.336Z,79.00
2022-10-11T00:54:32.012Z,78.65
2022-10-11T00:57:28.670Z,78.23
2022-10-11T01:00:13.071Z,78.26
2022-10-11T01:03:01.105Z,77.00
2022-10-11T01:05:44.269Z,77.12
2022-10-11T01:08:27.040Z,77.58
2022-10-11T01:11:12.738Z,75.93
2022-10-11T01:14:22.242Z,76.14
2022-10-11T01:17:42.540Z,77.62
2022-10-11T01:20:59.603Z,77.86
2022-10-11T01:24:17.578Z,78.58
2022-10-11T01:27:41.114Z,79.07
2022-10-11T01:30:34.658Z,79.06
2022-10-11T01:33:56.243Z,79.09
2022-10-11T01:37:17.228Z,79.67
2022-10-11T01:40:15.213Z,80.11
2022-10-11T01:42:57.110Z,79.46
2022-10-11T01:45:39.029Z,79.35
2022-10-11T01:48:18.064Z,78.52
2022-10-11T01:51:03.901Z,78.09
2022-10-11T01:54:50.202Z,78.76
2022-10-11T01:58:16.570Z,77.63
2022-10-11T02:01:15.050Z,77.50
2022-10-11T02:04:27.650Z,77.68
2022-10-11T02:07:39.317Z,77.50
2022-10-11T02:10:44.393Z,77.77
2022-10-11T02:13:41.546Z,78.25
2022-10-11T02:16:32.550Z,77.76
2022-10-11T02:19:19.254Z,78.76
2022-10-11T02:22:07.472Z,79.12
2022-10-11T02:24:52.023Z,78.43
2022-10-11T02:27:35.297Z,78.63
2022-10-11T02:30:15.463Z,78.23
2022-10-11T02:32:58.650Z,78.24
2022-10-11T02:35:50.246Z,79.04
2022-10-11T02:38:40.564Z,78.79
2022-10-11T02:41:31.505Z,79.35
2022-10-11T02:44:22.616Z,77.46
2022-10-11T02:47:04.490Z,78.22
2022-10-11T02:49:32.628Z,78.01
2022-10-11T02:51:59.869Z,77.82
2022-10-11T02:54:27.933Z,78.24
2022-10-11T02:57:08.424Z,77.75
2022-10-11T02:59:47.645Z,78.82
2022-10-11T03:02:25.805Z,78.50
2022-10-11T03:05:04.834Z,78.05
2022-10-11T03:07:43.894Z,77.98
2022-10-11T03:10:22.868Z,77.80
2022-10-11T03:13:03.023Z,78.21
2022-10-11T03:15:47.933Z,79.19
2022-10-11T03:18:28.054Z,78.58
2022-10-11T03:21:06.286Z,79.32
2022-10-11T03:23:44.929Z,78.98
2022-10-11T03:26:24.309Z,78.92
2022-10-11T03:29:03.081Z,79.52
2022-10-11T03:31:42.289Z,79.47
2022-10-11T03:34:20.967Z,78.99
2022-10-11T03:37:00.088Z,79.01
2022-10-11T03:39:38.488Z,78.63
2022-10-11T03:42:17.257Z,78.68
2022-10-11T03:44:57.080Z,78.62
2022-10-11T03:47:38.347Z,78.70
2022-10-11T03:50:17.541Z,77.75
2022-10-11T03:52:56.329Z,78.71
2022-10-11T03:55:34.353Z,77.27
2022-10-11T03:58:13.059Z,77.17
2022-10-11T04:00:53.855Z,77.77
2022-10-11T04:03:31.933Z,78.28
2022-10-11T04:06:10.163Z,78.27
2022-10-11T04:08:50.394Z,78.19
2022-10-11T04:11:29.490Z,77.90
2022-10-11T04:14:11.233Z,78.34
2022-10-11T04:16:49.129Z,78.16
2022-10-11T04:19:27.639Z,78.19
2022-10-11T04:22:06.444Z,77.27
2022-10-11T04:24:46.923Z,77.41
2022-10-11T04:27:29.276Z,77.06
2022-10-11T04:30:12.983Z,78.42
2022-10-11T04:32:51.332Z,77.79
2022-10-11T04:35:29.354Z,77.95
2022-10-11T04:38:07.886Z,77.87
2022-10-11T04:40:47.681Z,77.03
2022-10-11T04:43:25.532Z,77.78
2022-10-11T04:46:06.130Z,78.14
2022-10-11T04:48:50.757Z,77.67
2022-10-11T04:51:30.347Z,76.89
2022-10-11T04:54:10.307Z,77.37
2022-10-11T04:56:52.342Z,76.73
2022-10-11T05:09:56.291Z,77.85
2022-10-11T05:12:34.311Z,77.49
2022-10-11T05:15:12.510Z,78.09
2022-10-11T05:17:50.642Z,77.02
2022-10-11T05:20:29.014Z,77.33
2022-10-11T05:23:08.362Z,77.68
2022-10-11T05:25:47.689Z,77.95
2022-10-11T05:28:36.480Z,76.63
2022-10-11T05:31:17.426Z,78.36
2022-10-11T05:33:56.690Z,78.66
2022-10-11T05:36:35.766Z,78.74
2022-10-11T05:39:13.569Z,78.28
2022-10-11T05:41:52.838Z,77.83
2022-10-11T05:44:45.349Z,77.65
2022-10-11T05:47:23.942Z,77.35
2022-10-11T05:50:03.561Z,77.79
2022-10-11T05:52:43.347Z,77.50
2022-10-11T05:55:22.295Z,77.93
2022-10-11T05:58:01.728Z,78.20
2022-10-11T06:00:41.583Z,78.36
2022-10-11T06:03:21.081Z,76.32
2022-10-11T06:06:03.620Z,78.41
2022-10-11T06:08:42.741Z,77.91
2022-10-11T06:11:42.786Z,77.62
2022-10-11T06:14:37.553Z,77.46
2022-10-11T06:17:43.172Z,77.07
2022-10-11T06:20:40.188Z,76.85
2022-10-11T06:23:33.151Z,76.12
2022-10-11T06:26:30.567Z,77.19
2022-10-11T06:29:25.925Z,77.00
2022-10-11T06:32:19.067Z,76.20
2022-10-11T06:35:24.012Z,76.53
2022-10-11T06:38:17.151Z,76.52
2022-10-11T06:41:30.205Z,76.42
2022-10-11T06:44:29.315Z,74.99
2022-10-11T06:47:25.891Z,75.08
2022-10-11T06:50:40.609Z,76.08
2022-10-11T06:53:42.629Z,75.59
2022-10-11T06:56:45.705Z,75.15
2022-10-11T06:59:43.308Z,76.15
2022-10-11T07:02:36.197Z,74.81
2022-10-11T07:05:34.718Z,75.16
2022-10-11T07:08:35.571Z,74.62
2022-10-11T07:11:57.846Z,73.35
2022-10-11T07:14:55.004Z,76.33
2022-10-11T07:17:52.830Z,75.67
2022-10-11T07:20:51.929Z,76.58
2022-10-11T07:23:48.071Z,76.04
2022-10-11T07:26:33.866Z,75.14
2022-10-11T07:29:35.053Z,74.19
2022-10-11T07:32:37.406Z,74.38
2022-10-11T07:35:45.955Z,74.15
2022-10-11T07:38:26.072Z,72.71
2022-10-11T07:41:22.480Z,73.38
2022-10-11T07:44:21.978Z,74.36
2022-10-11T07:47:24.609Z,74.97
2022-10-11T07:50:26.837Z,71.83
2022-10-11T07:53:25.911Z,72.80
2022-10-11T07:56:27.874Z,71.00
2022-10-11T07:59:21.205Z,71.29
2022-10-11T08:02:27.759Z,70.14
2022-10-11T08:05:34.800Z,67.38
2022-10-11T08:08:31.962Z,67.17
2022-10-11T08:11:37.270Z,63.41
2022-10-11T08:14:23.089Z,64.56
2022-10-11T08:17:09.612Z,61.42
2022-10-11T08:19:55.822Z,63.43
2022-10-11T08:22:42.490Z,59.80
2022-10-11T08:25:29.239Z,58.93
2022-10-11T08:28:17.782Z,58.22
2022-10-11T08:31:04.923Z,54.30
2022-10-11T08:33:51.065Z,57.22
2022-10-11T08:36:38.332Z,54.81
2022-10-11T08:39:24.044Z,52.73
2022-10-11T08:42:45.785Z,51.52
2022-10-11T08:45:48.474Z,52.85
2022-10-11T08:48:48.845Z,52.91
2022-10-11T08:51:32.767Z,52.25
2022-10-11T08:54:38.474Z,52.74
2022-10-11T08:57:11.400Z,54.42
2022-10-11T09:00:15.432Z,53.59
2022-10-11T09:03:47.826Z,53.17
2022-10-11T09:07:53.452Z,52.73
2022-10-11T09:10:57.638Z,52.28
2022-10-11T09:13:43.803Z,53.25
2022-10-11T09:17:06.315Z,52.59
2022-10-11T09:20:38.881Z,53.10
2022-10-11T09:24:19.092Z,52.78
2022-10-11T09:26:57.920Z,53.88
2022-10-11T09:30:11.783Z,53.54
2022-10-11T09:32:54.304Z,52.98
2022-10-11T09:35:23.237Z,53.57
2022-10-11T09:38:19.787Z,52.92
2022-10-11T09:41:02.191Z,53.44
2022-10-11T09:43:29.874Z,54.84
2022-10-11T09:45:57.455Z,54.08
2022-10-11T09:48:39.534Z,53.81
2022-10-11T09:51:18.304Z,54.14
2022-10-11T09:54:07.129Z,54.97
2022-10-11T09:56:43.338Z,54.00
2022-10-11T09:59:34.582Z,53.68
2022-10-11T10:02:16.657Z,52.98
2022-10-11T10:05:04.833Z,52.27
2022-10-11T10:07:35.858Z,53.31
2022-10-11T10:10:40.267Z,53.51
2022-10-11T10:13:20.378Z,54.09
2022-10-11T10:16:01.401Z,53.42
2022-10-11T10:18:50.971Z,52.80
2022-10-11T10:21:36.209Z,53.80
2022-10-11T10:24:37.716Z,53.63
2022-10-11T10:27:11.053Z,54.13
2022-10-11T10:29:38.639Z,54.78
2022-10-11T10:32:22.684Z,54.77
2022-10-11T10:35:47.664Z,54.82
2022-10-11T10:38:39.929Z,53.59
2022-10-11T10:41:14.632Z,52.73
2022-10-11T10:43:56.574Z,52.31
2022-10-11T10:46:58.166Z,52.26
2022-10-11T10:49:54.216Z,51.79
2022-10-11T10:52:44.922Z,51.39
2022-10-11T10:55:41.948Z,49.38
2022-10-11T10:59:14.659Z,48.52
2022-10-11T11:02:57.661Z,48.18
2022-10-11T11:06:41.034Z,47.32
2022-10-11T11:10:23.634Z,45.87
2022-10-11T11:14:06.534Z,46.14
2022-10-11T11:17:52.796Z,44.96
2022-10-11T11:20:57.534Z,44.43
2022-10-11T11:24:25.313Z,43.88
2022-10-11T11:27:49.922Z,44.67
2022-10-11T11:31:34.039Z,44.38
2022-10-11T11:35:12.784Z,44.04
2022-10-11T11:37:55.581Z,44.45
2022-10-11T11:41:12.204Z,44.47
2022-10-11T11:44:55.396Z,44.09
2022-10-11T11:47:38.376Z,43.83
2022-10-11T11:50:25.201Z,42.99
2022-10-11T11:53:05.006Z,42.43
2022-10-11T11:55:57.393Z,40.94
2022-10-11T11:58:44.743Z,40.30
2022-10-11T12:02:27.679Z,40.83
2022-10-11T12:05:10.177Z,39.23
2022-10-11T12:08:07.130Z,38.11
2022-10-11T12:10:39.611Z,38.07
2022-10-11T12:13:31.949Z,36.31
2022-10-11T12:16:14.702Z,35.90
2022-10-11T12:18:57.243Z,34.70
2022-10-11T12:21:43.787Z,34.10
2022-10-11T12:24:20.121Z,31.43
2022-10-11T12:26:59.558Z,29.91
2022-10-11T12:29:51.105Z,27.89
2022-10-11T12:32:27.586Z,28.28
2022-10-11T12:35:39.979Z,30.00
2022-10-11T12:38:21.955Z,31.18
2022-10-11T12:41:00.791Z,33.08
2022-10-11T12:43:36.170Z,33.25
2022-10-11T12:46:31.032Z,32.81
2022-10-11T12:49:03.554Z,32.05
2022-10-11T12:52:01.367Z,33.53
2022-10-11T12:55:12.280Z,34.93
2022-10-11T12:58:38.487Z,36.86
2022-10-11T13:01:17.923Z,37.17
2022-10-11T13:03:57.610Z,36.68
2022-10-11T13:09:39.347Z,38.91
2022-10-11T13:12:26.987Z,39.76
2022-10-11T13:15:11.400Z,39.62
2022-10-11T13:17:41.712Z,39.66
2022-10-11T13:20:27.907Z,39.06
2022-10-11T13:22:57.344Z,39.09
2022-10-11T13:25:37.038Z,37.81
2022-10-11T13:28:09.200Z,38.21
2022-10-11T13:30:45.400Z,37.97
2022-10-11T13:33:33.505Z,37.41
2022-10-11T13:36:05.883Z,37.87
2022-10-11T13:38:37.059Z,38.10
2022-10-11T13:41:10.449Z,38.60
2022-10-11T13:43:40.677Z,40.39
2022-10-11T13:46:22.274Z,41.93
2022-10-11T13:49:40.372Z,41.44
2022-10-11T13:52:22.978Z,40.66
2022-10-11T13:55:04.904Z,40.31
2022-10-11T13:57:47.257Z,40.05
2022-10-11T14:00:17.676Z,40.54
2022-10-11T14:03:13.750Z,40.63
2022-10-11T14:05:58.223Z,40.65
2022-10-11T14:08:31.768Z,41.62
2022-10-11T14:12:14.149Z,42.69
2022-10-11T14:14:43.084Z,42.63
2022-10-11T14:17:33.192Z,42.58
2022-10-11T14:20:34.412Z,42.39
2022-10-11T14:24:17.834Z,42.68
2022-10-11T14:26:56.305Z,43.43
2022-10-11T14:30:39.114Z,44.33
2022-10-11T14:34:22.164Z,44.41
2022-10-11T14:38:05.104Z,44.56
2022-10-11T14:41:48.247Z,45.75
2022-10-11T14:45:31.148Z,46.63
2022-10-11T14:49:14.310Z,46.72
2022-10-11T14:52:57.407Z,47.21
2022-10-11T14:56:40.387Z,47.75
2022-10-11T15:00:23.249Z,48.27
2022-10-11T15:04:05.993Z,48.54
2022-10-11T15:06:39.499Z,48.83
2022-10-11T15:09:08.650Z,49.09
2022-10-11T15:11:39.105Z,49.40
2022-10-11T15:14:07.013Z,49.25
2022-10-11T15:16:35.593Z,49.47
2022-10-11T15:19:04.047Z,49.54
2022-10-11T15:21:32.083Z,49.43
2022-10-11T15:23:59.564Z,49.07
2022-10-11T15:26:29.802Z,49.07
2022-10-11T15:28:57.982Z,49.92
2022-10-11T15:31:26.253Z,50.70
2022-10-11T15:33:53.737Z,51.21
2022-10-11T15:36:22.961Z,51.59
2022-10-11T15:38:50.344Z,51.48
2022-10-11T15:41:20.113Z,52.12
2022-10-11T15:43:49.678Z,52.38
2022-10-11T15:46:22.292Z,51.70
2022-10-11T15:49:17.452Z,52.02
2022-10-11T15:51:45.818Z,52.56
2022-10-11T15:54:13.342Z,52.63
2022-10-11T15:56:40.752Z,53.13
2022-10-11T15:59:11.723Z,52.57
2022-10-11T16:01:39.613Z,52.75
2022-10-11T16:04:06.955Z,53.03
2022-10-11T16:06:34.172Z,53.77
2022-10-11T16:09:01.854Z,54.08
2022-10-11T16:11:29.257Z,53.80
2022-10-11T16:13:56.615Z,54.07
2022-10-11T16:16:24.064Z,53.62
2022-10-11T16:18:51.633Z,53.58
2022-10-11T16:21:20.782Z,54.23
2022-10-11T16:23:48.087Z,53.93
2022-10-11T16:26:16.484Z,53.35
2022-10-11T16:28:45.158Z,54.28
2022-10-11T16:31:19.737Z,54.65
2022-10-11T16:33:48.090Z,54.67
2022-10-11T16:36:32.628Z,54.75
2022-10-11T16:39:06.217Z,55.03
2022-10-11T16:41:33.533Z,55.16
2022-10-11T16:44:02.448Z,55.67
2022-10-11T16:46:31.532Z,55.15
2022-10-11T16:49:03.797Z,55.41
2022-10-11T16:51:31.378Z,54.96
2022-10-11T16:53:58.920Z,56.02
2022-10-11T16:56:26.373Z,55.31
2022-10-11T16:58:54.969Z,55.71
2022-10-11T17:01:22.585Z,56.55
2022-10-11T17:03:51.074Z,56.44
2022-10-11T17:06:19.774Z,56.84
2022-10-11T17:08:47.437Z,57.04
2022-10-11T17:11:17.467Z,58.92
2022-10-11T17:13:46.467Z,59.22
2022-10-11T17:16:16.032Z,58.46
2022-10-11T17:18:44.281Z,58.67
2022-10-11T17:21:17.006Z,58.39
2022-10-11T17:23:44.802Z,58.04
2022-10-11T17:26:24.795Z,58.68
2022-10-11T17:28:57.098Z,58.68
2022-10-11T17:31:25.623Z,59.75
2022-10-11T17:33:54.779Z,59.95
2022-10-11T17:36:27.903Z,60.00
2022-10-11T17:38:55.381Z,60.01
2022-10-11T17:41:22.783Z,59.81
2022-10-11T17:43:50.049Z,60.06
2022-10-11T17:46:18.926Z,59.96
2022-10-11T17:48:46.199Z,60.25
2022-10-11T17:51:19.256Z,60.15
2022-10-11T17:53:52.915Z,60.80
2022-10-11T17:56:28.836Z,61.50
2022-10-11T17:58:59.683Z,61.87
2022-10-11T18:01:29.318Z,62.71
2022-10-11T18:04:02.024Z,62.22
2022-10-11T18:06:34.609Z,61.87
2022-10-11T18:09:04.185Z,61.89
2022-10-11T18:11:32.607Z,61.57
2022-10-11T18:14:00.790Z,60.89
2022-10-11T18:16:31.602Z,61.46
2022-10-11T18:18:59.364Z,61.25
2022-10-11T18:21:34.376Z,60.90
2022-10-11T18:24:15.402Z,61.73
2022-10-11T18:26:45.429Z,60.64
2022-10-11T18:29:13.155Z,61.02
2022-10-11T18:31:41.690Z,61.88
2022-10-11T18:34:10.844Z,61.01
2022-10-11T18:36:42.107Z,61.69
2022-10-11T18:39:14.809Z,61.78
2022-10-11T18:41:44.402Z,61.97
2022-10-11T18:44:15.043Z,62.37
2022-10-11T18:46:45.998Z,62.10
2022-10-11T18:49:14.209Z,62.48
2022-10-11T18:51:42.604Z,62.90
2022-10-11T18:54:15.212Z,62.24
2022-10-11T18:56:45.972Z,62.49
2022-10-11T18:59:13.288Z,62.41
2022-10-11T19:01:44.602Z,63.29
2022-10-11T19:04:16.058Z,63.28
2022-10-11T19:06:50.766Z,64.02
2022-10-11T19:09:26.003Z,64.22
2022-10-11T19:11:59.821Z,62.91
2022-10-11T19:14:30.229Z,63.18
2022-10-11T19:16:57.956Z,62.74
2022-10-11T19:19:29.296Z,63.35
2022-10-11T19:21:57.165Z,64.75
2022-10-11T19:24:28.465Z,64.40
2022-10-11T19:27:02.003Z,63.87
2022-10-11T19:29:31.205Z,63.36
2022-10-11T19:32:03.419Z,63.12
2022-10-11T19:34:31.630Z,63.46
2022-10-11T19:37:01.043Z,63.35
2022-10-11T19:39:31.872Z,63.83
2022-10-11T19:42:00.244Z,63.90
2022-10-11T19:44:27.519Z,64.47
2022-10-11T19:46:55.468Z,64.50
2022-10-11T19:49:25.931Z,64.87
2022-10-11T19:51:55.571Z,66.76
2022-10-11T19:54:24.402Z,65.15
2022-10-11T19:56:52.570Z,65.34
2022-10-11T19:59:20.282Z,65.59
2022-10-11T20:01:52.394Z,64.75
2022-10-11T20:07:09.518Z,64.00
2022-10-11T20:09:37.043Z,63.79
2022-10-11T20:12:04.903Z,63.63
2022-10-11T20:14:32.949Z,62.58
2022-10-11T20:17:00.607Z,63.15
2022-10-11T20:19:31.034Z,62.48
2022-10-11T20:22:01.349Z,62.15
2022-10-11T20:24:33.561Z,62.43
2022-10-11T20:27:04.604Z,62.22
2022-10-11T20:29:32.115Z,62.33
2022-10-11T20:31:59.876Z,62.69
2022-10-11T20:34:27.746Z,61.84
2022-10-11T20:36:55.215Z,62.73
2022-10-11T20:39:23.727Z,63.38
2022-10-11T20:41:51.448Z,64.28
2022-10-11T20:44:19.087Z,64.50
2022-10-11T20:46:47.696Z,63.33
2022-10-11T20:49:15.379Z,64.10
2022-10-11T20:51:45.152Z,63.68
2022-10-11T20:54:12.903Z,61.29
2022-10-11T20:56:40.447Z,60.85
2022-10-11T20:59:08.375Z,62.30
2022-10-11T21:01:40.678Z,62.64
2022-10-11T21:04:18.773Z,62.89
2022-10-11T21:06:48.398Z,62.74
2022-10-11T21:09:17.283Z,61.81
2022-10-11T21:11:49.323Z,61.19
2022-10-11T21:14:17.230Z,60.19
2022-10-11T21:16:44.637Z,60.42
2022-10-11T21:19:15.346Z,60.54
2022-10-11T21:21:44.568Z,61.55
2022-10-11T21:24:13.232Z,61.28
2022-10-11T21:26:40.697Z,61.88
2022-10-11T21:29:08.488Z,62.92
2022-10-11T21:31:36.399Z,63.25
2022-10-11T21:34:05.181Z,63.23
2022-10-11T21:36:32.957Z,62.98
2022-10-11T21:39:00.493Z,63.08
2022-10-11T21:41:31.301Z,63.23
2022-10-11T21:43:59.031Z,62.31
2022-10-11T21:49:19.891Z,63.45
2022-10-11T21:51:47.443Z,63.88
2022-10-11T21:54:15.072Z,62.50
2022-10-11T21:56:42.915Z,63.26
2022-10-11T21:59:12.598Z,62.71
2022-10-11T22:01:41.958Z,61.91
2022-10-11T22:04:11.243Z,62.36
2022-10-11T22:06:39.306Z,61.93
2022-10-11T22:09:08.615Z,61.59
2022-10-11T22:11:37.402Z,62.61
2022-10-11T22:14:05.380Z,62.32
2022-10-11T22:16:34.926Z,62.74
2022-10-11T22:19:03.578Z,62.97
2022-10-11T22:21:31.603Z,63.01
2022-10-11T22:23:59.194Z,62.42
2022-10-11T22:26:34.570Z,63.97
2022-10-11T22:29:01.955Z,64.24
2022-10-11T22:31:30.439Z,63.20
2022-10-11T22:34:00.606Z,62.96
2022-10-11T22:36:33.886Z,62.64
2022-10-11T22:39:02.594Z,62.35
2022-10-11T22:41:30.030Z,63.38
2022-10-11T22:43:57.707Z,63.87
2022-10-11T22:46:27.956Z,63.11
2022-10-11T22:48:55.888Z,62.12
2022-10-11T22:51:23.570Z,62.80
2022-10-11T22:53:51.135Z,62.78
2022-10-11T22:56:20.421Z,62.57
2022-10-11T22:58:48.524Z,61.85
2022-10-11T23:01:16.690Z,61.51
2022-10-11T23:03:49.313Z,62.86
2022-10-11T23:06:17.748Z,64.04
2022-10-11T23:08:45.107Z,64.27
2022-10-11T23:11:12.755Z,62.64
2022-10-11T23:13:40.533Z,62.73
2022-10-11T23:16:12.802Z,62.78
2022-10-11T23:18:40.415Z,62.82
2022-10-11T23:21:10.665Z,62.83
2022-10-11T23:23:40.784Z,62.19
2022-10-11T23:26:17.662Z,62.83
2022-10-11T23:28:45.623Z,62.68
2022-10-11T23:31:17.955Z,62.99
2022-10-11T23:33:47.336Z,63.75
2022-10-11T23:36:18.622Z,62.99
2022-10-11T23:38:58.615Z,62.68
2022-10-11T23:41:29.611Z,62.37
2022-10-11T23:43:58.617Z,61.68
2022-10-11T23:46:27.646Z,62.05
2022-10-11T23:48:55.308Z,62.03
2022-10-11T23:51:23.028Z,62.21
2022-10-11T23:53:50.527Z,61.39
2022-10-11T23:56:18.198Z,62.04
2022-10-11T23:58:45.941Z,62.31
